sensor_id;sensor_type;location;lat;lon;timestamp;temperature;humidity
20158;DHT22;10239;56.820;24.416;2022-09-30T00:01:37;10.60;99.90
20158;DHT22;10239;56.820;24.416;2022-09-30T00:04:20;10.60;99.90
20158;DHT22;10239;56.820;24.416;2022-09-30T00:06:51;10.60;99.90
20158;DHT22;10239;56.820;24.416;2022-09-30T00:09:19;10.60;99.90
20158;DHT22;10239;56.820;24.416;2022-09-30T00:11:48;10.80;99.90
20158;DHT22;10239;56.820;24.416;2022-09-30T00:14:18;10.90;99.90
20158;DHT22;10239;56.820;24.416;2022-09-30T00:16:46;10.70;99.90
20158;DHT22;10239;56.820;24.416;2022-09-30T00:19:15;10.80;99.90
20158;DHT22;10239;56.820;24.416;2022-09-30T00:21:43;10.70;99.90
20158;DHT22;10239;56.820;24.416;2022-09-30T00:24:11;10.60;99.90
20158;DHT22;10239;56.820;24.416;2022-09-30T00:26:39;10.90;99.90
20158;DHT22;10239;56.820;24.416;2022-09-30T00:29:06;10.90;99.90
20158;DHT22;10239;56.820;24.416;2022-09-30T00:31:34;10.90;99.90
20158;DHT22;10239;56.820;24.416;2022-09-30T00:34:03;10.90;99.90
20158;DHT22;10239;56.820;24.416;2022-09-30T00:36:40;10.70;99.90
20158;DHT22;10239;56.820;24.416;2022-09-30T00:39:28;10.90;99.90
20158;DHT22;10239;56.820;24.416;2022-09-30T00:42:00;10.70;99.90
20158;DHT22;10239;56.820;24.416;2022-09-30T00:45:26;10.80;99.90
20158;DHT22;10239;56.820;24.416;2022-09-30T00:47:37;10.80;99.90
20158;DHT22;10239;56.820;24.416;2022-09-30T00:50:14;11.00;99.90
20158;DHT22;10239;56.820;24.416;2022-09-30T00:52:45;11.00;99.90
20158;DHT22;10239;56.820;24.416;2022-09-30T00:58:03;10.80;99.90
20158;DHT22;10239;56.820;24.416;2022-09-30T01:00:32;10.80;99.90
20158;DHT22;10239;56.820;24.416;2022-09-30T01:03:01;10.80;99.90
20158;DHT22;10239;56.820;24.416;2022-09-30T01:05:32;10.90;99.90
20158;DHT22;10239;56.820;24.416;2022-09-30T01:08:03;10.90;99.90
20158;DHT22;10239;56.820;24.416;2022-09-30T01:10:31;10.80;99.90
20158;DHT22;10239;56.820;24.416;2022-09-30T01:12:59;10.90;99.90
20158;DHT22;10239;56.820;24.416;2022-09-30T01:24:18;11.20;99.90
20158;DHT22;10239;56.820;24.416;2022-09-30T01:27:21;11.30;99.90
20158;DHT22;10239;56.820;24.416;2022-09-30T01:38:28;11.20;99.90
20158;DHT22;10239;56.820;24.416;2022-09-30T01:41:11;11.10;99.90
20158;DHT22;10239;56.820;24.416;2022-09-30T01:43:44;11.20;99.90
20158;DHT22;10239;56.820;24.416;2022-09-30T01:46:21;11.20;99.90
20158;DHT22;10239;56.820;24.416;2022-09-30T01:51:41;11.50;99.90
20158;DHT22;10239;56.820;24.416;2022-09-30T01:54:20;11.60;99.90
20158;DHT22;10239;56.820;24.416;2022-09-30T01:57:18;11.70;99.90
20158;DHT22;10239;56.820;24.416;2022-09-30T02:00:07;11.70;99.90
20158;DHT22;10239;56.820;24.416;2022-09-30T02:02:43;11.80;99.90
20158;DHT22;10239;56.820;24.416;2022-09-30T02:05:40;12.00;99.90
20158;DHT22;10239;56.820;24.416;2022-09-30T02:11:14;12.10;99.90
20158;DHT22;10239;56.820;24.416;2022-09-30T02:17:02;12.30;99.90
20158;DHT22;10239;56.820;24.416;2022-09-30T02:19:54;12.30;99.90
20158;DHT22;10239;56.820;24.416;2022-09-30T02:22:42;12.30;99.90
20158;DHT22;10239;56.820;24.416;2022-09-30T02:25:15;12.30;99.90
20158;DHT22;10239;56.820;24.416;2022-09-30T02:27:51;12.20;99.90
20158;DHT22;10239;56.820;24.416;2022-09-30T02:30:21;12.20;99.90
20158;DHT22;10239;56.820;24.416;2022-09-30T02:33:10;12.30;99.90
20158;DHT22;10239;56.820;24.416;2022-09-30T02:35:53;12.30;99.90
20158;DHT22;10239;56.820;24.416;2022-09-30T02:38:28;12.20;99.90
20158;DHT22;10239;56.820;24.416;2022-09-30T02:41:01;12.10;99.90
20158;DHT22;10239;56.820;24.416;2022-09-30T02:43:33;12.10;99.90
20158;DHT22;10239;56.820;24.416;2022-09-30T02:46:14;12.00;99.90
20158;DHT22;10239;56.820;24.416;2022-09-30T02:48:54;11.90;99.90
20158;DHT22;10239;56.820;24.416;2022-09-30T02:56:53;11.50;99.90
20158;DHT22;10239;56.820;24.416;2022-09-30T02:59:24;11.40;99.90
20158;DHT22;10239;56.820;24.416;2022-09-30T03:01:52;11.30;99.90
20158;DHT22;10239;56.820;24.416;2022-09-30T03:04:32;11.20;99.90
20158;DHT22;10239;56.820;24.416;2022-09-30T03:07:01;11.10;99.90
20158;DHT22;10239;56.820;24.416;2022-09-30T03:09:29;11.10;99.90
20158;DHT22;10239;56.820;24.416;2022-09-30T03:15:24;11.10;99.90
20158;DHT22;10239;56.820;24.416;2022-09-30T03:23:50;11.10;99.90
20158;DHT22;10239;56.820;24.416;2022-09-30T03:26:35;11.20;99.90
20158;DHT22;10239;56.820;24.416;2022-09-30T03:29:42;11.20;99.90
20158;DHT22;10239;56.820;24.416;2022-09-30T03:32:40;11.20;99.90
20158;DHT22;10239;56.820;24.416;2022-09-30T03:38:07;11.20;99.90
20158;DHT22;10239;56.820;24.416;2022-09-30T03:48:44;11.30;99.90
20158;DHT22;10239;56.820;24.416;2022-09-30T03:51:14;11.30;99.90
20158;DHT22;10239;56.820;24.416;2022-09-30T03:53:44;11.30;99.90
20158;DHT22;10239;56.820;24.416;2022-09-30T03:56:13;11.20;99.90
20158;DHT22;10239;56.820;24.416;2022-09-30T03:58:42;11.20;99.90
20158;DHT22;10239;56.820;24.416;2022-09-30T04:01:18;11.20;99.90
20158;DHT22;10239;56.820;24.416;2022-09-30T04:03:48;11.20;99.90
20158;DHT22;10239;56.820;24.416;2022-09-30T04:06:20;11.20;99.90
20158;DHT22;10239;56.820;24.416;2022-09-30T04:08:48;11.30;99.90
20158;DHT22;10239;56.820;24.416;2022-09-30T04:11:16;11.30;99.90
20158;DHT22;10239;56.820;24.416;2022-09-30T04:13:44;11.30;99.90
20158;DHT22;10239;56.820;24.416;2022-09-30T04:16:11;11.20;99.90
20158;DHT22;10239;56.820;24.416;2022-09-30T04:18:39;11.10;99.90
20158;DHT22;10239;56.820;24.416;2022-09-30T04:21:08;11.10;99.90
20158;DHT22;10239;56.820;24.416;2022-09-30T04:23:38;11.10;99.90
20158;DHT22;10239;56.820;24.416;2022-09-30T04:26:09;11.00;99.90
20158;DHT22;10239;56.820;24.416;2022-09-30T04:28:37;10.90;99.90
20158;DHT22;10239;56.820;24.416;2022-09-30T04:31:05;10.90;99.90
20158;DHT22;10239;56.820;24.416;2022-09-30T04:33:34;10.90;99.90
20158;DHT22;10239;56.820;24.416;2022-09-30T04:36:03;10.90;99.90
20158;DHT22;10239;56.820;24.416;2022-09-30T04:38:31;10.90;99.90
20158;DHT22;10239;56.820;24.416;2022-09-30T04:41:04;10.90;99.90
20158;DHT22;10239;56.820;24.416;2022-09-30T04:43:33;10.80;99.90
20158;DHT22;10239;56.820;24.416;2022-09-30T04:46:01;10.70;99.90
20158;DHT22;10239;56.820;24.416;2022-09-30T04:48:29;10.70;99.90
20158;DHT22;10239;56.820;24.416;2022-09-30T04:50:58;10.70;99.90
20158;DHT22;10239;56.820;24.416;2022-09-30T04:53:27;10.70;99.90
20158;DHT22;10239;56.820;24.416;2022-09-30T04:55:59;10.60;99.90
20158;DHT22;10239;56.820;24.416;2022-09-30T04:58:28;10.60;99.90
20158;DHT22;10239;56.820;24.416;2022-09-30T05:01:06;10.60;99.90
20158;DHT22;10239;56.820;24.416;2022-09-30T05:03:35;10.70;99.90
20158;DHT22;10239;56.820;24.416;2022-09-30T05:06:04;10.60;99.90
20158;DHT22;10239;56.820;24.416;2022-09-30T05:08:33;10.70;99.90
20158;DHT22;10239;56.820;24.416;2022-09-30T05:11:04;10.80;99.90
20158;DHT22;10239;56.820;24.416;2022-09-30T05:13:37;10.90;99.90
20158;DHT22;10239;56.820;24.416;2022-09-30T05:16:06;10.90;99.90
20158;DHT22;10239;56.820;24.416;2022-09-30T05:18:36;10.80;99.90
20158;DHT22;10239;56.820;24.416;2022-09-30T05:21:04;10.70;99.90
20158;DHT22;10239;56.820;24.416;2022-09-30T05:23:32;10.80;99.90
20158;DHT22;10239;56.820;24.416;2022-09-30T05:26:00;10.80;99.90
20158;DHT22;10239;56.820;24.416;2022-09-30T05:28:29;10.90;99.90
20158;DHT22;10239;56.820;24.416;2022-09-30T05:31:01;11.10;99.90
20158;DHT22;10239;56.820;24.416;2022-09-30T05:33:33;11.00;99.90
20158;DHT22;10239;56.820;24.416;2022-09-30T05:36:05;11.00;99.90
20158;DHT22;10239;56.820;24.416;2022-09-30T05:38:33;11.00;99.90
20158;DHT22;10239;56.820;24.416;2022-09-30T05:41:09;10.90;99.90
20158;DHT22;10239;56.820;24.416;2022-09-30T05:43:42;10.90;99.90
20158;DHT22;10239;56.820;24.416;2022-09-30T05:46:18;11.00;99.90
20158;DHT22;10239;56.820;24.416;2022-09-30T05:48:46;11.20;99.90
20158;DHT22;10239;56.820;24.416;2022-09-30T05:51:14;11.50;99.90
20158;DHT22;10239;56.820;24.416;2022-09-30T05:53:42;11.50;99.90
20158;DHT22;10239;56.820;24.416;2022-09-30T05:56:12;11.50;99.90
20158;DHT22;10239;56.820;24.416;2022-09-30T05:58:40;11.50;99.90
20158;DHT22;10239;56.820;24.416;2022-09-30T06:01:10;11.70;99.90
20158;DHT22;10239;56.820;24.416;2022-09-30T06:03:43;11.80;99.90
20158;DHT22;10239;56.820;24.416;2022-09-30T06:06:13;11.80;99.90
20158;DHT22;10239;56.820;24.416;2022-09-30T06:08:41;11.90;99.90
20158;DHT22;10239;56.820;24.416;2022-09-30T06:11:12;12.60;99.90
20158;DHT22;10239;56.820;24.416;2022-09-30T06:13:41;13.60;99.90
20158;DHT22;10239;56.820;24.416;2022-09-30T06:16:10;13.80;99.90
20158;DHT22;10239;56.820;24.416;2022-09-30T06:18:39;13.60;99.90
20158;DHT22;10239;56.820;24.416;2022-09-30T06:21:10;13.40;99.90
20158;DHT22;10239;56.820;24.416;2022-09-30T06:23:39;13.10;99.90
20158;DHT22;10239;56.820;24.416;2022-09-30T06:26:10;13.00;99.90
20158;DHT22;10239;56.820;24.416;2022-09-30T06:28:41;13.00;99.90
20158;DHT22;10239;56.820;24.416;2022-09-30T06:31:10;13.10;99.90
20158;DHT22;10239;56.820;24.416;2022-09-30T06:33:38;14.10;99.90
20158;DHT22;10239;56.820;24.416;2022-09-30T06:36:06;14.60;99.90
20158;DHT22;10239;56.820;24.416;2022-09-30T06:38:34;14.70;99.90
20158;DHT22;10239;56.820;24.416;2022-09-30T06:41:03;14.60;99.90
20158;DHT22;10239;56.820;24.416;2022-09-30T06:43:32;14.30;99.90
20158;DHT22;10239;56.820;24.416;2022-09-30T06:46:12;14.10;99.90
20158;DHT22;10239;56.820;24.416;2022-09-30T06:48:57;15.80;99.90
20158;DHT22;10239;56.820;24.416;2022-09-30T06:51:41;17.50;99.90
20158;DHT22;10239;56.820;24.416;2022-09-30T06:54:09;18.00;99.90
20158;DHT22;10239;56.820;24.416;2022-09-30T06:56:37;17.50;99.90
20158;DHT22;10239;56.820;24.416;2022-09-30T06:59:05;16.70;99.90
20158;DHT22;10239;56.820;24.416;2022-09-30T07:01:33;16.10;99.90
20158;DHT22;10239;56.820;24.416;2022-09-30T07:04:01;15.60;99.90
20158;DHT22;10239;56.820;24.416;2022-09-30T07:06:34;15.20;99.90
20158;DHT22;10239;56.820;24.416;2022-09-30T07:09:03;15.10;99.90
20158;DHT22;10239;56.820;24.416;2022-09-30T07:11:33;14.80;99.90
20158;DHT22;10239;56.820;24.416;2022-09-30T07:14:01;14.90;99.90
20158;DHT22;10239;56.820;24.416;2022-09-30T07:16:30;15.40;99.90
20158;DHT22;10239;56.820;24.416;2022-09-30T07:19:04;16.40;99.90
20158;DHT22;10239;56.820;24.416;2022-09-30T07:21:33;18.30;99.90
20158;DHT22;10239;56.820;24.416;2022-09-30T07:24:01;20.10;99.90
20158;DHT22;10239;56.820;24.416;2022-09-30T07:26:29;21.00;99.90
20158;DHT22;10239;56.820;24.416;2022-09-30T07:28:57;21.00;99.90
20158;DHT22;10239;56.820;24.416;2022-09-30T07:31:26;20.70;99.90
20158;DHT22;10239;56.820;24.416;2022-09-30T07:34:02;20.10;99.90
20158;DHT22;10239;56.820;24.416;2022-09-30T07:36:34;20.10;99.90
20158;DHT22;10239;56.820;24.416;2022-09-30T07:39:07;19.80;99.90
20158;DHT22;10239;56.820;24.416;2022-09-30T07:41:37;19.70;99.90
20158;DHT22;10239;56.820;24.416;2022-09-30T07:44:09;19.70;99.90
20158;DHT22;10239;56.820;24.416;2022-09-30T07:46:40;20.80;99.90
20158;DHT22;10239;56.820;24.416;2022-09-30T07:49:13;21.30;99.90
20158;DHT22;10239;56.820;24.416;2022-09-30T07:51:42;22.20;99.90
20158;DHT22;10239;56.820;24.416;2022-09-30T07:54:16;23.40;99.90
20158;DHT22;10239;56.820;24.416;2022-09-30T07:56:45;24.40;99.90
20158;DHT22;10239;56.820;24.416;2022-09-30T07:59:36;23.50;99.90
20158;DHT22;10239;56.820;24.416;2022-09-30T08:02:07;22.20;99.90
20158;DHT22;10239;56.820;24.416;2022-09-30T08:04:37;21.10;99.90
20158;DHT22;10239;56.820;24.416;2022-09-30T08:07:11;20.50;99.90
20158;DHT22;10239;56.820;24.416;2022-09-30T08:09:40;20.00;99.90
20158;DHT22;10239;56.820;24.416;2022-09-30T08:12:08;19.40;99.90
20158;DHT22;10239;56.820;24.416;2022-09-30T08:14:36;19.20;99.90
20158;DHT22;10239;56.820;24.416;2022-09-30T08:17:03;19.30;99.90
20158;DHT22;10239;56.820;24.416;2022-09-30T08:19:31;20.30;99.90
20158;DHT22;10239;56.820;24.416;2022-09-30T08:22:01;21.90;99.90
20158;DHT22;10239;56.820;24.416;2022-09-30T08:24:29;22.80;99.90
20158;DHT22;10239;56.820;24.416;2022-09-30T08:26:57;23.30;99.90
20158;DHT22;10239;56.820;24.416;2022-09-30T08:29:25;22.70;99.90
20158;DHT22;10239;56.820;24.416;2022-09-30T08:32:13;22.00;99.90
20158;DHT22;10239;56.820;24.416;2022-09-30T08:34:41;21.00;99.90
20158;DHT22;10239;56.820;24.416;2022-09-30T08:37:12;20.90;99.90
20158;DHT22;10239;56.820;24.416;2022-09-30T08:39:40;21.80;99.90
20158;DHT22;10239;56.820;24.416;2022-09-30T08:51:45;25.20;99.90
20158;DHT22;10239;56.820;24.416;2022-09-30T08:54:22;25.90;99.90
20158;DHT22;10239;56.820;24.416;2022-09-30T08:56:51;25.60;99.90
20158;DHT22;10239;56.820;24.416;2022-09-30T09:02:55;24.90;99.90
20158;DHT22;10239;56.820;24.416;2022-09-30T09:08:26;25.20;99.90
20158;DHT22;10239;56.820;24.416;2022-09-30T09:19:37;24.90;99.90
20158;DHT22;10239;56.820;24.416;2022-09-30T09:22:09;24.90;99.90
20158;DHT22;10239;56.820;24.416;2022-09-30T09:24:46;24.70;99.90
20158;DHT22;10239;56.820;24.416;2022-09-30T09:30:21;24.90;99.90
20158;DHT22;10239;56.820;24.416;2022-09-30T09:32:55;24.80;99.90
20158;DHT22;10239;56.820;24.416;2022-09-30T09:38:23;24.20;99.90
20158;DHT22;10239;56.820;24.416;2022-09-30T09:46:43;22.70;99.90
20158;DHT22;10239;56.820;24.416;2022-09-30T09:49:31;22.30;99.90
20158;DHT22;10239;56.820;24.416;2022-09-30T09:52:32;22.20;99.90
20158;DHT22;10239;56.820;24.416;2022-09-30T09:55:03;21.70;99.90
20158;DHT22;10239;56.820;24.416;2022-09-30T09:57:30;20.80;99.90
20158;DHT22;10239;56.820;24.416;2022-09-30T10:00:26;20.30;99.90
20158;DHT22;10239;56.820;24.416;2022-09-30T10:03:17;20.00;99.90
20158;DHT22;10239;56.820;24.416;2022-09-30T10:06:08;19.60;99.90
20158;DHT22;10239;56.820;24.416;2022-09-30T10:08:39;19.10;99.90
20158;DHT22;10239;56.820;24.416;2022-09-30T10:11:24;20.00;99.90
20158;DHT22;10239;56.820;24.416;2022-09-30T10:13:57;21.10;99.90
20158;DHT22;10239;56.820;24.416;2022-09-30T10:16:32;21.70;99.90
20158;DHT22;10239;56.820;24.416;2022-09-30T10:19:19;21.80;99.90
20158;DHT22;10239;56.820;24.416;2022-09-30T10:24:42;23.00;99.90
20158;DHT22;10239;56.820;24.416;2022-09-30T10:27:27;23.40;99.90
20158;DHT22;10239;56.820;24.416;2022-09-30T10:29:55;23.90;99.90
20158;DHT22;10239;56.820;24.416;2022-09-30T10:32:24;23.80;99.90
20158;DHT22;10239;56.820;24.416;2022-09-30T10:35:04;23.40;99.90
20158;DHT22;10239;56.820;24.416;2022-09-30T10:37:38;23.10;99.90
20158;DHT22;10239;56.820;24.416;2022-09-30T10:40:18;23.80;99.90
20158;DHT22;10239;56.820;24.416;2022-09-30T10:42:49;24.40;99.90
20158;DHT22;10239;56.820;24.416;2022-09-30T10:45:39;24.50;99.90
20158;DHT22;10239;56.820;24.416;2022-09-30T10:48:17;24.00;99.90
20158;DHT22;10239;56.820;24.416;2022-09-30T10:50:51;23.20;99.90
20158;DHT22;10239;56.820;24.416;2022-09-30T10:53:25;22.80;99.90
20158;DHT22;10239;56.820;24.416;2022-09-30T10:55:53;21.90;99.90
20158;DHT22;10239;56.820;24.416;2022-09-30T11:01:28;21.00;99.90
20158;DHT22;10239;56.820;24.416;2022-09-30T11:04:25;21.10;99.90
20158;DHT22;10239;56.820;24.416;2022-09-30T11:10:07;20.20;99.90
20158;DHT22;10239;56.820;24.416;2022-09-30T11:12:51;19.80;99.90
20158;DHT22;10239;56.820;24.416;2022-09-30T11:15:31;19.40;99.90
20158;DHT22;10239;56.820;24.416;2022-09-30T11:21:26;18.70;99.90
20158;DHT22;10239;56.820;24.416;2022-09-30T11:24:01;18.40;99.90
20158;DHT22;10239;56.820;24.416;2022-09-30T11:40:13;17.90;99.90
20158;DHT22;10239;56.820;24.416;2022-09-30T11:42:53;17.90;99.90
20158;DHT22;10239;56.820;24.416;2022-09-30T11:52:02;17.90;99.90
20158;DHT22;10239;56.820;24.416;2022-09-30T11:59:50;19.40;99.90
20158;DHT22;10239;56.820;24.416;2022-09-30T12:02:35;19.20;99.90
20158;DHT22;10239;56.820;24.416;2022-09-30T12:05:46;19.10;99.90
20158;DHT22;10239;56.820;24.416;2022-09-30T12:08:51;19.00;99.90
20158;DHT22;10239;56.820;24.416;2022-09-30T12:11:33;18.60;99.90
20158;DHT22;10239;56.820;24.416;2022-09-30T12:14:10;18.30;99.90
20158;DHT22;10239;56.820;24.416;2022-09-30T12:16:39;18.40;99.90
20158;DHT22;10239;56.820;24.416;2022-09-30T12:19:21;18.90;99.90
20158;DHT22;10239;56.820;24.416;2022-09-30T12:22:21;19.30;99.90
20158;DHT22;10239;56.820;24.416;2022-09-30T12:24:45;19.60;99.90
20158;DHT22;10239;56.820;24.416;2022-09-30T12:27:25;19.80;99.90
20158;DHT22;10239;56.820;24.416;2022-09-30T12:30:04;20.00;99.90
20158;DHT22;10239;56.820;24.416;2022-09-30T12:33:17;20.00;99.90
20158;DHT22;10239;56.820;24.416;2022-09-30T12:42:03;19.90;99.90
20158;DHT22;10239;56.820;24.416;2022-09-30T12:50:20;19.90;99.90
20158;DHT22;10239;56.820;24.416;2022-09-30T12:52:49;19.80;99.90
20158;DHT22;10239;56.820;24.416;2022-09-30T12:55:37;19.70;99.90
20158;DHT22;10239;56.820;24.416;2022-09-30T12:58:12;19.20;99.90
20158;DHT22;10239;56.820;24.416;2022-09-30T13:00:58;19.10;99.90
20158;DHT22;10239;56.820;24.416;2022-09-30T13:03:27;19.10;99.90
20158;DHT22;10239;56.820;24.416;2022-09-30T13:05:56;19.10;99.90
20158;DHT22;10239;56.820;24.416;2022-09-30T13:08:40;19.30;99.90
20158;DHT22;10239;56.820;24.416;2022-09-30T13:11:31;19.10;99.90
20158;DHT22;10239;56.820;24.416;2022-09-30T13:17:23;18.50;99.90
20158;DHT22;10239;56.820;24.416;2022-09-30T13:19:53;18.80;99.90
20158;DHT22;10239;56.820;24.416;2022-09-30T13:27:38;18.70;99.90
20158;DHT22;10239;56.820;24.416;2022-09-30T13:35:46;18.40;99.90
20158;DHT22;10239;56.820;24.416;2022-09-30T13:38:20;18.30;99.90
20158;DHT22;10239;56.820;24.416;2022-09-30T13:40:57;18.20;99.90
20158;DHT22;10239;56.820;24.416;2022-09-30T13:44:07;18.20;99.90
20158;DHT22;10239;56.820;24.416;2022-09-30T13:46:58;18.30;99.90
20158;DHT22;10239;56.820;24.416;2022-09-30T13:49:50;18.40;99.90
20158;DHT22;10239;56.820;24.416;2022-09-30T13:52:29;18.40;99.90
20158;DHT22;10239;56.820;24.416;2022-09-30T13:55:15;18.40;99.90
20158;DHT22;10239;56.820;24.416;2022-09-30T14:11:42;17.70;99.90
20158;DHT22;10239;56.820;24.416;2022-09-30T14:14:36;17.50;99.90
20158;DHT22;10239;56.820;24.416;2022-09-30T14:22:36;17.00;99.90
20158;DHT22;10239;56.820;24.416;2022-09-30T14:25:17;16.80;99.90
20158;DHT22;10239;56.820;24.416;2022-09-30T14:27:59;16.60;99.90
20158;DHT22;10239;56.820;24.416;2022-09-30T14:30:39;16.40;99.90
20158;DHT22;10239;56.820;24.416;2022-09-30T14:33:22;16.10;99.90
20158;DHT22;10239;56.820;24.416;2022-09-30T14:35:53;15.90;99.90
20158;DHT22;10239;56.820;24.416;2022-09-30T14:38:23;15.90;99.90
20158;DHT22;10239;56.820;24.416;2022-09-30T14:41:01;15.90;99.90
20158;DHT22;10239;56.820;24.416;2022-09-30T14:43:40;15.90;99.90
20158;DHT22;10239;56.820;24.416;2022-09-30T14:48:52;15.80;99.90
20158;DHT22;10239;56.820;24.416;2022-09-30T14:51:20;15.60;99.90
20158;DHT22;10239;56.820;24.416;2022-09-30T14:53:56;15.60;99.90
20158;DHT22;10239;56.820;24.416;2022-09-30T14:56:27;15.60;99.90
20158;DHT22;10239;56.820;24.416;2022-09-30T14:58:58;15.40;99.90
20158;DHT22;10239;56.820;24.416;2022-09-30T15:01:33;15.40;99.90
20158;DHT22;10239;56.820;24.416;2022-09-30T15:04:19;15.30;99.90
20158;DHT22;10239;56.820;24.416;2022-09-30T15:06:50;15.20;99.90
20158;DHT22;10239;56.820;24.416;2022-09-30T15:09:23;15.10;99.90
20158;DHT22;10239;56.820;24.416;2022-09-30T15:11:52;15.10;99.90
20158;DHT22;10239;56.820;24.416;2022-09-30T15:14:22;15.10;99.90
20158;DHT22;10239;56.820;24.416;2022-09-30T15:16:55;15.10;99.90
20158;DHT22;10239;56.820;24.416;2022-09-30T15:19:39;15.00;99.90
20158;DHT22;10239;56.820;24.416;2022-09-30T15:22:11;14.90;99.90
20158;DHT22;10239;56.820;24.416;2022-09-30T15:24:40;14.80;99.90
20158;DHT22;10239;56.820;24.416;2022-09-30T15:27:22;14.70;99.90
20158;DHT22;10239;56.820;24.416;2022-09-30T15:30:24;14.60;99.90
20158;DHT22;10239;56.820;24.416;2022-09-30T15:33:01;14.50;99.90
20158;DHT22;10239;56.820;24.416;2022-09-30T15:35:29;14.40;99.90
20158;DHT22;10239;56.820;24.416;2022-09-30T15:38:20;14.40;99.90
20158;DHT22;10239;56.820;24.416;2022-09-30T15:41:08;14.00;99.90
20158;DHT22;10239;56.820;24.416;2022-09-30T15:43:46;13.70;99.90
20158;DHT22;10239;56.820;24.416;2022-09-30T15:46:21;13.50;99.90
20158;DHT22;10239;56.820;24.416;2022-09-30T15:48:49;13.30;99.90
20158;DHT22;10239;56.820;24.416;2022-09-30T15:53:52;13.00;99.90
20158;DHT22;10239;56.820;24.416;2022-09-30T15:56:25;13.00;99.90
20158;DHT22;10239;56.820;24.416;2022-09-30T16:01:38;12.60;99.90
20158;DHT22;10239;56.820;24.416;2022-09-30T16:09:39;11.90;99.90
20158;DHT22;10239;56.820;24.416;2022-09-30T16:12:18;11.80;99.90
20158;DHT22;10239;56.820;24.416;2022-09-30T16:14:53;11.80;99.90
20158;DHT22;10239;56.820;24.416;2022-09-30T16:17:29;11.80;99.90
20158;DHT22;10239;56.820;24.416;2022-09-30T16:20:00;11.90;99.90
20158;DHT22;10239;56.820;24.416;2022-09-30T16:25:26;11.80;99.90
20158;DHT22;10239;56.820;24.416;2022-09-30T16:28:00;11.60;99.90
20158;DHT22;10239;56.820;24.416;2022-09-30T16:30:29;11.50;99.90
20158;DHT22;10239;56.820;24.416;2022-09-30T16:33:02;11.40;99.90
20158;DHT22;10239;56.820;24.416;2022-09-30T16:35:31;11.30;99.90
20158;DHT22;10239;56.820;24.416;2022-09-30T16:38:02;11.20;99.90
20158;DHT22;10239;56.820;24.416;2022-09-30T16:40:31;11.10;99.90
20158;DHT22;10239;56.820;24.416;2022-09-30T16:42:59;11.00;99.90
20158;DHT22;10239;56.820;24.416;2022-09-30T16:45:33;10.90;99.90
20158;DHT22;10239;56.820;24.416;2022-09-30T16:48:10;10.70;99.90
20158;DHT22;10239;56.820;24.416;2022-09-30T16:51:03;10.50;99.90
20158;DHT22;10239;56.820;24.416;2022-09-30T16:53:31;10.50;99.90
20158;DHT22;10239;56.820;24.416;2022-09-30T16:55:59;10.40;99.90
20158;DHT22;10239;56.820;24.416;2022-09-30T16:58:27;10.30;99.90
20158;DHT22;10239;56.820;24.416;2022-09-30T17:00:55;10.30;99.90
20158;DHT22;10239;56.820;24.416;2022-09-30T17:03:24;10.30;99.90
20158;DHT22;10239;56.820;24.416;2022-09-30T17:05:52;10.30;99.90
20158;DHT22;10239;56.820;24.416;2022-09-30T17:08:21;10.20;99.90
20158;DHT22;10239;56.820;24.416;2022-09-30T17:10:50;10.20;99.90
20158;DHT22;10239;56.820;24.416;2022-09-30T17:13:17;10.20;99.90
20158;DHT22;10239;56.820;24.416;2022-09-30T17:15:50;10.10;99.90
20158;DHT22;10239;56.820;24.416;2022-09-30T17:18:18;10.20;99.90
20158;DHT22;10239;56.820;24.416;2022-09-30T17:20:47;10.10;99.90
20158;DHT22;10239;56.820;24.416;2022-09-30T17:23:20;10.10;99.90
20158;DHT22;10239;56.820;24.416;2022-09-30T17:25:48;10.10;99.90
20158;DHT22;10239;56.820;24.416;2022-09-30T17:28:16;10.10;99.90
20158;DHT22;10239;56.820;24.416;2022-09-30T17:30:45;9.90;99.90
20158;DHT22;10239;56.820;24.416;2022-09-30T17:33:14;9.80;99.90
20158;DHT22;10239;56.820;24.416;2022-09-30T17:35:42;9.70;99.90
20158;DHT22;10239;56.820;24.416;2022-09-30T17:38:11;9.70;99.90
20158;DHT22;10239;56.820;24.416;2022-09-30T17:40:39;9.80;99.90
20158;DHT22;10239;56.820;24.416;2022-09-30T17:43:25;9.80;99.90
20158;DHT22;10239;56.820;24.416;2022-09-30T17:45:52;9.80;99.90
20158;DHT22;10239;56.820;24.416;2022-09-30T17:48:24;9.90;99.90
20158;DHT22;10239;56.820;24.416;2022-09-30T17:50:52;10.00;99.90
20158;DHT22;10239;56.820;24.416;2022-09-30T17:53:22;10.00;99.90
20158;DHT22;10239;56.820;24.416;2022-09-30T17:56:06;9.90;99.90
20158;DHT22;10239;56.820;24.416;2022-09-30T17:58:37;9.80;99.90
20158;DHT22;10239;56.820;24.416;2022-09-30T18:01:06;9.80;99.90
20158;DHT22;10239;56.820;24.416;2022-09-30T18:03:35;9.90;99.90
20158;DHT22;10239;56.820;24.416;2022-09-30T18:06:03;10.10;99.90
20158;DHT22;10239;56.820;24.416;2022-09-30T18:08:31;10.20;99.90
20158;DHT22;10239;56.820;24.416;2022-09-30T18:10:59;10.20;99.90
20158;DHT22;10239;56.820;24.416;2022-09-30T18:13:27;10.40;99.90
20158;DHT22;10239;56.820;24.416;2022-09-30T18:15:55;10.50;99.90
20158;DHT22;10239;56.820;24.416;2022-09-30T18:18:28;10.00;99.90
20158;DHT22;10239;56.820;24.416;2022-09-30T18:20:56;10.30;99.90
20158;DHT22;10239;56.820;24.416;2022-09-30T18:23:23;10.40;99.90
20158;DHT22;10239;56.820;24.416;2022-09-30T18:25:51;10.40;99.90
20158;DHT22;10239;56.820;24.416;2022-09-30T18:28:22;10.50;99.90
20158;DHT22;10239;56.820;24.416;2022-09-30T18:30:50;10.50;99.90
20158;DHT22;10239;56.820;24.416;2022-09-30T18:33:17;10.50;99.90
20158;DHT22;10239;56.820;24.416;2022-09-30T18:35:48;10.50;99.90
20158;DHT22;10239;56.820;24.416;2022-09-30T18:38:17;10.40;99.90
20158;DHT22;10239;56.820;24.416;2022-09-30T18:40:44;10.50;99.90
20158;DHT22;10239;56.820;24.416;2022-09-30T18:43:13;10.40;99.90
20158;DHT22;10239;56.820;24.416;2022-09-30T18:45:40;10.30;99.90
20158;DHT22;10239;56.820;24.416;2022-09-30T18:48:12;10.10;99.90
20158;DHT22;10239;56.820;24.416;2022-09-30T18:50:40;10.10;99.90
20158;DHT22;10239;56.820;24.416;2022-09-30T18:53:10;10.10;99.90
20158;DHT22;10239;56.820;24.416;2022-09-30T18:55:39;10.00;99.90
20158;DHT22;10239;56.820;24.416;2022-09-30T18:58:10;10.00;99.90
20158;DHT22;10239;56.820;24.416;2022-09-30T19:00:37;9.90;99.90
20158;DHT22;10239;56.820;24.416;2022-09-30T19:03:05;9.70;99.90
20158;DHT22;10239;56.820;24.416;2022-09-30T19:05:36;9.50;99.90
20158;DHT22;10239;56.820;24.416;2022-09-30T19:08:04;9.40;99.90
20158;DHT22;10239;56.820;24.416;2022-09-30T19:10:31;9.40;99.90